Řízení letového provozu České republiky
Letiste: LKPD Aktualizace: 22.09.2019 09:00:35  UTC
 METAR LKPD 22.09. 09:00 ...
METAR LKPD 220900Z 09009KT 070V130 CAVOK 18/05 Q1017 NOSIG RMK BLU BLU=
 TAF LKPD 22.09. 05:00 ...
TAF LKPD 220500Z 2206/2306 11005KT CAVOK      BECMG 2209/2211 13010KT      TEMPO 2212/2216 13010G20KT      BECMG 2217/2219 11005KT=